Walterboro, SC

7:15 AM EDT on September 02, 2015 (GMT -0400)
Lowcountry Regional | | Change Station
CLOSE
Current Station
Airport
Location: Walterboro,
Elevation: 102 ft
Nearby Weather Stations
Active Advisory: Special Statement

Elev 102 ft 32.92 °N, 80.64 °W | Updated 20 minutes ago

Fog
Fog
73 °F
Feels Like 73 °F
N
0
Wind Variable Wind from North

Today
High -- | Low -- °F
--% Chance of Precip.
Yesterday
High -- | Low -- °F
Precip. -- in
6:57 AM 7:46 PM
Waning Gibbous, 81% visible
Pressure 30.09 in
Visibility 0.2 miles
Clouds Overcast 200 ft
Dew Point 72 °F
Humidity 94%
Rainfall 0.00 in
Snow Depth Not available.
UV 0 out of 12
Pollen 6.90 out of 12
Air Quality Not available.
Flu Activity Not available.
METAR KRBW 021055Z AUTO 00000KT M1/4SM FG OVC002 23/22 A3009 RMK AO2 LTG DSNT W
Pressure 30.09 in
Visibility 0.2 miles
Clouds Overcast 200 ft
Dew Point 72 °F
Humidity 94%
Rainfall 0.00 in
Snow Depth Not available.
UV 0 out of 12
Pollen 6.90 out of 12
Air Quality Not available.
Flu Activity Not available.
METAR KRBW 021055Z AUTO 00000KT M1/4SM FG OVC002 23/22 A3009 RMK AO2 LTG DSNT W

10-Day Weather Forecast

×

Almanac

Astronomy

Sep. 02, 2015 Rise Set
Actual Time
Civil Twilight
Nautical Twilight
Astronomical Twilight
Moon
Length of Visible Light
Length of Day
Tomorrow will be .
, % of the Moon is Illuminated

Today's Extremes

State Highs State Lows

Community

WunderPhotos

Upload Photos

1,851,736 photos uploaded!

WunderBlogs® & News

Nearby

Air Quality

  Air Quality AQ Index Pollutant
Not available.

Snow Depth

Station Depth Elevation

Earthquake Activity

City Distance Mag. Time & Date
Minimum magnitude displayed is 2.5.

Coastal Water Temperatures

Place Temperature

Stations

Nearby Weather Stations

Station Location Temp. Windchill Dew Point Humidity Wind Precip. Elev Updated Type
                   
Special Statement
Statement as of 6:49 AM EDT on September 02, 2015

... Patchy dense fog across the area early this morning...

Patchy fog will be locally dense to the west of the U.S. 17
corridor early this morning... reducing visibilities to less than
1/2 mile at times on area roadways. The fog is expected to
dissipate shortly after 9 am.

Precautionary/preparedness actions...

If driving... slow down and leave extra distance ahead of you in
case a sudden stop is needed.



649 am EDT Wed Sep 2 2015

... Patchy dense fog across the area early this morning...

Patchy fog will be locally dense to the west of the U.S. 17
corridor early this morning... reducing visibilities to less than
1/2 mile at times on area roadways. The fog is expected to
dissipate shortly after 9 am.

Precautionary/preparedness actions...

If driving... slow down and leave extra distance ahead of you in
case a sudden stop is needed.